CLC3 weather

Calgary (Peter Lougheed Centre) Heliport
Calgary, Alberta, Canada

Public forecast

Using degrees Celsius for public forecast. Weather courtesy of forecast.io.

Closest aviation weather report (METAR) to Calgary (Peter Lougheed Centre) Heliport

Closest report is Calgary International Airport, 2.5 nm (4.6 km) NNW. Retrieved 2020/02/21 00:00 UTC (45 minutes ago):

CYYC 210000Z 27013G20KT 40SM FEW180 BKN260 08/M14 A2993 RMK AC2CC4 SLP182 DENSITY ALT 3700FT

Closest aviation forecast (TAF) to Calgary (Peter Lougheed Centre) Heliport

Closest forecast is Calgary International Airport, 2.5 nm (4.6 km) NNW. Retrieved 2020-02-21 00:42 UTC (3 minutes ago):

TAF CYYC 202338Z 2100/2124 28012G22KT P6SM FEW180 SCT240 FM210400 28010KT P6SM SKC FM211800 27012G22KT P6SM BKN160 BECMG 2120/2122 27018G28KT RMK NXT FCST BY 210300Z